Waleska, Georgia
Current Conditions -  °F | °C
As of 12:35 PM on Tuesday 21 Oct 2014 (Local Time) from KCNI Reporting Station
Clear Clear  
Wind Chill: 68°   Ceiling: Unl
Heat Index: 68°   Visibility: 10mi
Dew Point: 46°   Wind: 6mph
Humidity: 46%   Direction: 280°W
Pressure: 30.04"   Gusts: NA
Location:  34.32°N, 84.55°W
Report Text: KCNI 211635Z AUTO 28005KT 10SM CLR 20/08 A3004 RMK AO2
Loading
Personal Weather Stations






























Interactive Weather Map
Tropical Storm Tracking
New forecast layout! Learn more

10-Day Weather Forecast

Advertisements
Track Severe Weather on mobile